Terminal Aerodrome Forecast
Issued by NWS

Home | Current Version | Previous Version | Text Only | Print | Product List | Glossary On
Versions: 1 2 3 4 5 6 7 8 9 10 11 12 13 14 15
000
FTUS43 KPAH 291725
TAFCGI
TAF
KCGI 291725Z 2918/3018 31007KT P6SM SCT040
      TEMPO 2919/2922 BKN040
     FM300000 VRB03KT P6SM SKC
     FM300800 00000KT 4SM BR SKC
     FM301300 26007KT P6SM SCT035=

USA.gov is the U.S. government's official web portal to all federal, state and local government web resources and services.